createdAt,value
2022-08-14T00:01:54.943Z,19.30
2022-08-14T00:04:34.770Z,19.20
2022-08-14T00:07:10.385Z,19.00
2022-08-14T00:09:56.353Z,18.80
2022-08-14T00:12:33.631Z,18.70
2022-08-14T00:15:10.426Z,18.50
2022-08-14T00:17:47.856Z,18.40
2022-08-14T00:20:24.025Z,18.30
2022-08-14T00:22:58.395Z,18.10
2022-08-14T00:25:30.534Z,18.00
2022-08-14T00:28:15.581Z,18.10
2022-08-14T00:30:47.793Z,18.30
2022-08-14T00:33:16.858Z,18.30
2022-08-14T00:36:36.291Z,18.40
2022-08-14T00:38:35.200Z,18.40
2022-08-14T00:41:06.084Z,18.20
2022-08-14T00:43:34.407Z,18.10
2022-08-14T00:46:08.055Z,18.00
2022-08-14T00:48:36.928Z,18.00
2022-08-14T00:51:09.846Z,18.10
2022-08-14T00:53:42.993Z,18.10
2022-08-14T00:56:14.128Z,18.10
2022-08-14T00:58:45.421Z,18.10
2022-08-14T01:01:19.104Z,18.00
2022-08-14T01:03:49.695Z,18.00
2022-08-14T01:06:23.184Z,17.90
2022-08-14T01:08:59.572Z,17.80
2022-08-14T01:11:35.600Z,17.70
2022-08-14T01:14:25.352Z,17.60
2022-08-14T01:16:55.620Z,17.50
2022-08-14T01:19:50.266Z,17.40
2022-08-14T01:22:26.716Z,17.40
2022-08-14T01:24:55.617Z,17.30
2022-08-14T01:27:25.846Z,17.30
2022-08-14T01:30:04.212Z,17.20
2022-08-14T01:32:35.437Z,17.20
2022-08-14T01:36:05.356Z,17.20
2022-08-14T01:38:09.338Z,17.20
2022-08-14T01:40:41.733Z,17.20
2022-08-14T01:43:18.681Z,17.20
2022-08-14T01:45:57.609Z,17.20
2022-08-14T01:48:37.348Z,17.20
2022-08-14T01:51:18.698Z,17.30
2022-08-14T01:53:54.695Z,17.20
2022-08-14T01:56:36.908Z,17.20
2022-08-14T01:59:09.826Z,17.20
2022-08-14T02:01:38.417Z,17.20
2022-08-14T02:04:40.737Z,17.10
2022-08-14T02:06:59.562Z,17.10
2022-08-14T02:09:31.995Z,17.10
2022-08-14T02:11:59.889Z,17.10
2022-08-14T02:14:32.113Z,17.20
2022-08-14T02:17:01.451Z,17.20
2022-08-14T02:19:32.413Z,17.20
2022-08-14T02:22:03.398Z,17.10
2022-08-14T02:24:38.704Z,16.90
2022-08-14T02:28:25.799Z,16.90
2022-08-14T02:30:00.414Z,16.90
2022-08-14T02:32:36.859Z,16.80
2022-08-14T02:35:18.600Z,16.80
2022-08-14T02:37:49.110Z,16.70
2022-08-14T02:40:20.545Z,16.70
2022-08-14T02:43:00.396Z,16.60
2022-08-14T02:45:38.849Z,16.60
2022-08-14T02:49:01.666Z,16.60
2022-08-14T02:51:02.589Z,16.50
2022-08-14T02:53:31.232Z,16.50
2022-08-14T02:56:03.097Z,16.60
2022-08-14T02:58:52.937Z,16.60
2022-08-14T03:01:26.214Z,16.60
2022-08-14T03:03:59.579Z,16.70
2022-08-14T03:06:35.050Z,16.70
2022-08-14T03:09:16.945Z,16.60
2022-08-14T03:11:46.332Z,16.60
2022-08-14T03:14:15.347Z,16.60
2022-08-14T03:16:45.454Z,16.60
2022-08-14T03:19:19.710Z,16.60
2022-08-14T03:21:53.119Z,16.50
2022-08-14T03:24:23.191Z,16.50
2022-08-14T03:26:57.743Z,16.50
2022-08-14T03:29:27.626Z,16.40
2022-08-14T03:31:57.509Z,16.50
2022-08-14T03:34:48.299Z,16.50
2022-08-14T03:37:51.008Z,16.50
2022-08-14T03:40:01.819Z,16.60
2022-08-14T03:42:35.812Z,16.70
2022-08-14T03:45:18.905Z,16.70
2022-08-14T03:47:58.582Z,16.70
2022-08-14T03:50:28.002Z,16.60
2022-08-14T03:53:01.476Z,16.50
2022-08-14T03:55:30.583Z,16.40
2022-08-14T03:58:00.880Z,16.40
2022-08-14T04:00:43.235Z,16.40
2022-08-14T04:03:18.226Z,16.30
2022-08-14T04:05:48.796Z,16.30
2022-08-14T04:08:29.581Z,16.20
2022-08-14T04:11:01.025Z,16.10
2022-08-14T04:13:34.104Z,16.10
2022-08-14T04:16:05.119Z,16.10
2022-08-14T04:18:34.978Z,16.10
2022-08-14T04:21:04.126Z,16.10
2022-08-14T04:23:33.459Z,16.10
2022-08-14T04:26:03.014Z,16.10
2022-08-14T04:29:07.128Z,16.30
2022-08-14T04:32:56.443Z,16.30
2022-08-14T04:34:20.954Z,16.60
2022-08-14T04:37:13.081Z,16.60
2022-08-14T04:39:58.987Z,16.70
2022-08-14T04:42:46.880Z,16.70
2022-08-14T04:45:21.968Z,17.00
2022-08-14T04:48:10.020Z,17.40
2022-08-14T04:50:45.089Z,17.80
2022-08-14T04:53:15.513Z,18.20
2022-08-14T04:55:50.012Z,18.40
2022-08-14T04:58:32.303Z,18.60
2022-08-14T05:01:03.904Z,18.70
2022-08-14T05:03:33.576Z,18.80
2022-08-14T05:06:04.012Z,19.00
2022-08-14T05:08:53.965Z,19.30
2022-08-14T05:11:24.160Z,19.60
2022-08-14T05:16:41.404Z,20.10
2022-08-14T05:19:18.548Z,20.30
2022-08-14T05:22:01.098Z,20.50
2022-08-14T05:24:43.783Z,20.80
2022-08-14T05:27:12.504Z,21.00
2022-08-14T05:29:44.735Z,21.10
2022-08-14T05:32:15.977Z,21.40
2022-08-14T05:34:46.059Z,21.70
2022-08-14T05:37:15.503Z,21.90
2022-08-14T05:39:44.167Z,22.00
2022-08-14T05:42:22.400Z,22.30
2022-08-14T05:44:55.515Z,22.60
2022-08-14T05:47:28.666Z,23.00
2022-08-14T05:50:02.253Z,23.20
2022-08-14T05:52:39.265Z,23.50
2022-08-14T05:55:10.764Z,23.50
2022-08-14T05:57:49.642Z,23.80
2022-08-14T06:00:29.137Z,24.00
2022-08-14T06:03:04.158Z,24.00
2022-08-14T06:05:38.720Z,24.10
2022-08-14T06:08:08.388Z,24.30
2022-08-14T06:10:53.803Z,24.40
2022-08-14T06:13:21.857Z,24.60
2022-08-14T06:15:51.080Z,24.70
2022-08-14T06:18:22.371Z,24.80
2022-08-14T06:20:54.153Z,24.90
2022-08-14T06:23:25.103Z,24.80
2022-08-14T06:25:55.563Z,24.90
2022-08-14T06:28:28.147Z,25.00
2022-08-14T06:30:56.849Z,25.20
2022-08-14T06:33:30.133Z,25.40
2022-08-14T06:36:18.375Z,25.60
2022-08-14T06:38:51.747Z,25.80
2022-08-14T06:41:20.786Z,26.00
2022-08-14T06:44:04.371Z,26.10
2022-08-14T06:46:36.955Z,26.20
2022-08-14T06:49:06.753Z,26.10
2022-08-14T06:51:38.679Z,26.20
2022-08-14T06:54:12.626Z,26.20
2022-08-14T06:56:44.418Z,26.30
2022-08-14T06:59:23.016Z,26.50
2022-08-14T07:02:13.573Z,26.70
2022-08-14T07:05:05.337Z,26.90
2022-08-14T07:07:40.404Z,27.00
2022-08-14T07:10:17.035Z,26.90
2022-08-14T07:13:01.070Z,26.80
2022-08-14T07:15:34.005Z,26.80
2022-08-14T07:18:08.562Z,26.80
2022-08-14T07:20:38.906Z,26.90
2022-08-14T07:23:11.088Z,27.10
2022-08-14T07:25:48.645Z,27.50
2022-08-14T07:28:23.312Z,27.50
2022-08-14T07:30:52.322Z,27.40
2022-08-14T07:33:29.062Z,27.60
2022-08-14T07:36:01.800Z,27.70
2022-08-14T07:38:36.306Z,27.70
2022-08-14T07:41:14.443Z,27.70
2022-08-14T07:43:55.123Z,27.60
2022-08-14T07:46:28.424Z,27.90
2022-08-14T07:48:57.880Z,28.30
2022-08-14T07:51:34.211Z,28.30
2022-08-14T07:54:10.930Z,28.60
2022-08-14T07:56:48.338Z,28.60
2022-08-14T07:59:18.473Z,28.80
2022-08-14T08:01:48.349Z,29.20
2022-08-14T08:04:40.908Z,29.50
2022-08-14T08:07:52.066Z,29.60
2022-08-14T08:11:02.275Z,29.90
2022-08-14T08:13:24.124Z,30.20
2022-08-14T08:15:56.771Z,30.50
2022-08-14T08:18:27.536Z,30.50
2022-08-14T08:20:59.783Z,30.60
2022-08-14T08:23:40.854Z,30.60
2022-08-14T08:26:12.682Z,30.50
2022-08-14T08:28:43.772Z,30.30
2022-08-14T08:31:14.393Z,30.20
2022-08-14T08:33:43.695Z,30.10
2022-08-14T08:36:18.479Z,30.10
2022-08-14T08:39:15.437Z,30.10
2022-08-14T08:41:43.861Z,30.30
2022-08-14T08:44:17.485Z,30.80
2022-08-14T08:47:05.321Z,30.70
2022-08-14T08:49:42.298Z,30.50
2022-08-14T08:52:25.071Z,30.50
2022-08-14T08:54:58.853Z,30.70
2022-08-14T08:57:27.413Z,31.00
2022-08-14T08:59:58.953Z,31.30
2022-08-14T09:02:27.985Z,31.70
2022-08-14T09:05:07.732Z,32.10
2022-08-14T09:07:36.445Z,32.20
2022-08-14T09:10:06.993Z,32.20
2022-08-14T09:12:36.279Z,32.20
2022-08-14T09:15:11.656Z,32.20
2022-08-14T09:17:42.354Z,32.30
2022-08-14T09:20:12.193Z,32.10
2022-08-14T09:22:42.612Z,32.10
2022-08-14T09:25:19.941Z,31.80
2022-08-14T09:28:07.271Z,32.20
2022-08-14T09:30:37.799Z,32.40
2022-08-14T09:33:56.351Z,32.10
2022-08-14T09:36:52.192Z,32.10
2022-08-14T09:39:38.602Z,32.20
2022-08-14T09:42:33.440Z,32.60
2022-08-14T09:45:19.492Z,32.20
2022-08-14T09:47:52.377Z,32.60
2022-08-14T09:50:32.063Z,32.80
2022-08-14T09:53:04.293Z,32.80
2022-08-14T09:55:41.606Z,32.60
2022-08-14T09:59:07.096Z,32.70
2022-08-14T10:01:45.920Z,33.00
2022-08-14T10:04:50.034Z,32.00
2022-08-14T10:07:32.258Z,31.10
2022-08-14T10:10:23.550Z,31.10
2022-08-14T10:12:53.234Z,31.30
2022-08-14T10:15:29.832Z,31.20
2022-08-14T10:18:17.618Z,31.90
2022-08-14T10:20:57.911Z,32.50
2022-08-14T10:23:30.024Z,33.20
2022-08-14T10:26:09.249Z,33.50
2022-08-14T10:29:18.135Z,33.50
2022-08-14T10:31:43.145Z,33.00
2022-08-14T10:34:19.741Z,32.70
2022-08-14T10:36:50.101Z,32.40
2022-08-14T10:39:30.730Z,32.40
2022-08-14T10:42:16.659Z,32.20
2022-08-14T10:44:52.388Z,31.80
2022-08-14T10:47:39.677Z,31.90
2022-08-14T10:50:12.149Z,32.50
2022-08-14T10:52:45.056Z,33.00
2022-08-14T10:55:16.086Z,33.50
2022-08-14T10:57:51.759Z,33.10
2022-08-14T11:00:30.427Z,32.30
2022-08-14T11:03:26.523Z,32.60
2022-08-14T11:06:20.242Z,33.10
2022-08-14T11:08:52.029Z,32.90
2022-08-14T11:11:28.522Z,31.90
2022-08-14T11:14:09.328Z,30.90
2022-08-14T11:16:40.655Z,30.30
2022-08-14T11:19:11.861Z,30.20
2022-08-14T11:21:45.851Z,30.60
2022-08-14T11:24:54.843Z,31.20
2022-08-14T11:27:06.723Z,31.30
2022-08-14T11:29:37.161Z,31.40
2022-08-14T11:32:07.842Z,31.30
2022-08-14T11:34:40.058Z,31.20
2022-08-14T11:37:21.521Z,31.30
2022-08-14T11:40:00.529Z,31.70
2022-08-14T11:42:58.114Z,31.50
2022-08-14T11:45:23.217Z,31.10
2022-08-14T11:48:13.390Z,31.00
2022-08-14T11:50:42.360Z,31.60
2022-08-14T11:53:23.019Z,32.40
2022-08-14T11:55:58.551Z,32.70
2022-08-14T11:58:28.924Z,32.40
2022-08-14T12:01:00.442Z,31.70
2022-08-14T12:03:51.678Z,31.20
2022-08-14T12:06:29.165Z,31.10
2022-08-14T12:09:08.538Z,31.80
2022-08-14T12:11:44.081Z,31.40
2022-08-14T12:14:34.557Z,31.20
2022-08-14T12:17:06.653Z,31.30
2022-08-14T12:19:54.227Z,31.90
2022-08-14T12:22:37.618Z,31.80
2022-08-14T12:25:11.475Z,32.30
2022-08-14T12:27:52.441Z,32.60
2022-08-14T12:30:39.585Z,33.10
2022-08-14T12:33:26.951Z,33.80
2022-08-14T12:36:04.480Z,34.40
2022-08-14T12:38:37.488Z,34.90
2022-08-14T12:41:10.496Z,35.50
2022-08-14T12:43:51.733Z,35.80
2022-08-14T12:46:29.074Z,35.80
2022-08-14T12:49:00.108Z,35.00
2022-08-14T12:51:31.400Z,34.40
2022-08-14T12:54:02.233Z,34.60
2022-08-14T12:56:33.116Z,34.70
2022-08-14T12:59:04.674Z,35.10
2022-08-14T13:01:59.247Z,35.30
2022-08-14T13:04:25.850Z,35.00
2022-08-14T13:06:54.658Z,34.00
2022-08-14T13:09:37.782Z,33.40
2022-08-14T13:12:31.344Z,33.40
2022-08-14T13:14:59.803Z,33.40
2022-08-14T13:17:44.107Z,33.80
2022-08-14T13:20:23.321Z,34.00
2022-08-14T13:22:55.017Z,33.90
2022-08-14T13:25:28.021Z,33.40
2022-08-14T13:28:00.143Z,33.20
2022-08-14T13:30:28.678Z,32.80
2022-08-14T13:33:00.231Z,32.50
2022-08-14T13:35:30.400Z,32.30
2022-08-14T13:38:01.477Z,31.90
2022-08-14T13:40:31.073Z,31.70
2022-08-14T13:42:59.875Z,31.60
2022-08-14T13:45:34.114Z,31.40
2022-08-14T13:48:27.469Z,31.30
2022-08-14T13:51:02.101Z,31.30
2022-08-14T13:53:43.234Z,31.50
2022-08-14T13:56:37.007Z,32.10
2022-08-14T13:59:04.833Z,32.50
2022-08-14T14:01:43.518Z,33.10
2022-08-14T14:04:19.293Z,32.90
2022-08-14T14:06:51.269Z,33.00
2022-08-14T14:09:32.654Z,33.40
2022-08-14T14:12:37.998Z,33.40
2022-08-14T14:15:13.091Z,33.50
2022-08-14T14:17:43.941Z,33.40
2022-08-14T14:20:34.971Z,33.40
2022-08-14T14:23:12.173Z,33.40
2022-08-14T14:25:51.007Z,33.40
2022-08-14T14:28:31.901Z,33.20
2022-08-14T14:31:05.990Z,33.00
2022-08-14T14:33:52.206Z,33.30
2022-08-14T14:36:27.897Z,33.50
2022-08-14T14:38:58.397Z,33.10
2022-08-14T14:41:37.571Z,33.20
2022-08-14T14:44:15.475Z,32.90
2022-08-14T14:46:51.141Z,32.70
2022-08-14T14:49:25.867Z,32.50
2022-08-14T14:52:23.336Z,32.20
2022-08-14T14:54:57.739Z,31.70
2022-08-14T14:57:35.235Z,31.30
2022-08-14T15:00:08.682Z,31.10
2022-08-14T15:02:42.102Z,31.00
2022-08-14T15:05:11.539Z,30.90
2022-08-14T15:07:41.533Z,31.00
2022-08-14T15:10:28.055Z,31.00
2022-08-14T15:13:03.753Z,31.00
2022-08-14T15:15:37.410Z,30.90
2022-08-14T15:18:36.588Z,30.80
2022-08-14T15:20:58.291Z,30.80
2022-08-14T15:23:34.131Z,30.70
2022-08-14T15:26:24.283Z,30.60
2022-08-14T15:29:03.245Z,30.40
2022-08-14T15:31:37.063Z,30.40
2022-08-14T15:34:43.074Z,30.30
2022-08-14T15:37:01.025Z,30.30
2022-08-14T15:39:35.461Z,30.30
2022-08-14T15:42:14.854Z,30.40
2022-08-14T15:44:58.075Z,30.40
2022-08-14T15:47:30.850Z,30.30
2022-08-14T15:50:00.678Z,30.20
2022-08-14T15:52:35.650Z,30.00
2022-08-14T15:55:08.585Z,29.80
2022-08-14T15:57:37.387Z,29.70
2022-08-14T16:00:43.272Z,29.60
2022-08-14T16:03:15.798Z,29.50
2022-08-14T16:05:47.005Z,29.50
2022-08-14T16:08:29.066Z,29.40
2022-08-14T16:10:59.534Z,29.30
2022-08-14T16:13:39.350Z,29.30
2022-08-14T16:16:47.162Z,29.30
2022-08-14T16:19:11.816Z,29.30
2022-08-14T16:22:01.213Z,29.30
2022-08-14T16:24:34.773Z,29.30
2022-08-14T16:27:05.464Z,29.30
2022-08-14T16:29:40.029Z,29.20
2022-08-14T16:32:33.579Z,29.30
2022-08-14T16:35:03.102Z,29.30
2022-08-14T16:37:34.169Z,29.30
2022-08-14T16:40:05.030Z,29.30
2022-08-14T16:43:02.226Z,29.40
2022-08-14T16:45:27.248Z,29.30
2022-08-14T16:47:56.058Z,29.30
2022-08-14T16:50:40.758Z,29.30
2022-08-14T16:53:17.714Z,29.30
2022-08-14T16:55:51.108Z,29.30
2022-08-14T16:58:29.720Z,29.30
2022-08-14T17:01:24.317Z,29.30
2022-08-14T17:04:06.433Z,29.30
2022-08-14T17:06:49.246Z,29.20
2022-08-14T17:09:32.842Z,29.20
2022-08-14T17:12:07.427Z,29.10
2022-08-14T17:15:03.585Z,29.00
2022-08-14T17:17:57.886Z,28.90
2022-08-14T17:21:00.083Z,28.80
2022-08-14T17:23:19.615Z,28.70
2022-08-14T17:25:51.257Z,28.60
2022-08-14T17:28:51.631Z,28.40
2022-08-14T17:31:12.240Z,28.40
2022-08-14T17:36:32.326Z,28.20
2022-08-14T17:39:06.799Z,28.10
2022-08-14T17:41:43.367Z,28.00
2022-08-14T17:44:34.068Z,27.80
2022-08-14T17:47:10.632Z,27.60
2022-08-14T17:49:47.058Z,27.50
2022-08-14T17:52:34.126Z,27.30
2022-08-14T17:55:07.036Z,27.20
2022-08-14T17:57:46.321Z,27.00
2022-08-14T18:00:17.775Z,26.80
2022-08-14T18:02:51.269Z,26.70
2022-08-14T18:06:07.123Z,26.50
2022-08-14T18:08:32.371Z,26.30
2022-08-14T18:11:05.257Z,26.20
2022-08-14T18:13:50.353Z,26.00
2022-08-14T18:16:22.517Z,25.90
2022-08-14T18:18:56.395Z,25.80
2022-08-14T18:21:41.363Z,25.60
2022-08-14T18:24:19.898Z,25.50
2022-08-14T18:27:08.736Z,25.40
2022-08-14T18:29:42.986Z,25.30
2022-08-14T18:32:47.100Z,25.10
2022-08-14T18:35:46.204Z,25.00
2022-08-14T18:38:43.128Z,24.80
2022-08-14T18:41:37.479Z,24.70
2022-08-14T18:44:10.243Z,24.70
2022-08-14T18:47:17.987Z,24.50
2022-08-14T18:50:27.580Z,24.30
2022-08-14T18:52:55.086Z,24.20
2022-08-14T18:55:53.124Z,24.20
2022-08-14T18:58:33.901Z,24.10
2022-08-14T19:01:06.206Z,24.00
2022-08-14T19:03:52.545Z,24.00
2022-08-14T19:06:21.060Z,23.90
2022-08-14T19:08:52.571Z,23.90
2022-08-14T19:11:50.522Z,23.80
2022-08-14T19:14:46.473Z,23.70
2022-08-14T19:18:15.047Z,23.70
2022-08-14T19:20:52.754Z,23.60
2022-08-14T19:23:43.890Z,23.40
2022-08-14T19:26:35.234Z,23.30
2022-08-14T19:29:24.209Z,23.30
2022-08-14T19:31:56.247Z,23.30
2022-08-14T19:34:52.169Z,23.20
2022-08-14T19:37:47.367Z,23.20
2022-08-14T19:40:33.955Z,23.10
2022-08-14T19:43:06.627Z,23.00
2022-08-14T19:45:38.170Z,22.90
2022-08-14T19:48:15.870Z,22.70
2022-08-14T19:50:47.673Z,22.50
2022-08-14T19:53:20.129Z,22.50
2022-08-14T19:56:04.945Z,22.40
2022-08-14T19:58:54.431Z,22.40
2022-08-14T20:01:37.075Z,22.30
2022-08-14T20:04:47.494Z,22.20
2022-08-14T20:07:04.423Z,22.20
2022-08-14T20:11:03.117Z,22.10
2022-08-14T20:12:35.354Z,21.90
2022-08-14T20:15:21.036Z,21.80
2022-08-14T20:17:52.786Z,21.80
2022-08-14T20:20:31.695Z,21.80
2022-08-14T20:23:03.046Z,21.70
2022-08-14T20:25:45.210Z,21.60
2022-08-14T20:28:32.177Z,21.60
2022-08-14T20:31:15.921Z,21.60
2022-08-14T20:34:06.156Z,21.60
2022-08-14T20:36:38.856Z,21.60
2022-08-14T20:39:15.202Z,21.50
2022-08-14T20:41:48.969Z,21.30
2022-08-14T20:44:40.413Z,21.30
2022-08-14T20:47:08.342Z,21.20
2022-08-14T20:49:37.303Z,21.20
2022-08-14T20:52:19.154Z,21.10
2022-08-14T20:54:51.758Z,21.00
2022-08-14T20:57:20.732Z,21.00
2022-08-14T20:59:53.207Z,21.00
2022-08-14T21:02:38.451Z,21.10
2022-08-14T21:05:21.914Z,21.10
2022-08-14T21:08:09.856Z,21.00
2022-08-14T21:10:50.829Z,20.90
2022-08-14T21:14:08.602Z,20.90
2022-08-14T21:16:25.910Z,20.80
2022-08-14T21:18:59.992Z,20.80
2022-08-14T21:21:41.475Z,20.90
2022-08-14T21:24:38.904Z,20.80
2022-08-14T21:27:13.111Z,20.80
2022-08-14T21:29:53.579Z,20.90
2022-08-14T21:32:35.088Z,20.90
2022-08-14T21:35:08.378Z,20.90
2022-08-14T21:37:45.965Z,20.90
2022-08-14T21:40:18.617Z,20.90
2022-08-14T21:43:06.175Z,20.80
2022-08-14T21:45:51.648Z,20.70
2022-08-14T21:48:22.175Z,20.70
2022-08-14T21:51:01.503Z,20.70
2022-08-14T21:53:58.801Z,20.70
2022-08-14T21:56:37.238Z,20.50
2022-08-14T21:59:09.233Z,20.40
2022-08-14T22:02:01.809Z,20.20
2022-08-14T22:04:33.682Z,20.10
2022-08-14T22:07:05.867Z,20.00
2022-08-14T22:09:36.508Z,19.90
2022-08-14T22:12:07.316Z,20.00
2022-08-14T22:14:43.124Z,20.10
2022-08-14T22:17:16.369Z,20.10
2022-08-14T22:19:54.719Z,20.20
2022-08-14T22:22:26.410Z,20.10
2022-08-14T22:25:00.355Z,20.20
2022-08-14T22:27:32.270Z,20.20
2022-08-14T22:30:01.021Z,20.20
2022-08-14T22:32:35.416Z,20.00
2022-08-14T22:35:17.824Z,20.00
2022-08-14T22:37:47.337Z,20.10
2022-08-14T22:41:00.269Z,20.10
2022-08-14T22:43:24.209Z,20.00
2022-08-14T22:45:55.782Z,19.90
2022-08-14T22:48:24.146Z,19.80
2022-08-14T22:50:53.449Z,19.60
2022-08-14T22:53:23.158Z,19.50
2022-08-14T22:55:51.998Z,19.50
2022-08-14T22:58:30.241Z,19.40
2022-08-14T23:01:01.477Z,19.20
2022-08-14T23:03:34.332Z,19.10
2022-08-14T23:07:03.505Z,19.00
2022-08-14T23:08:59.028Z,19.00
2022-08-14T23:11:30.438Z,19.10
2022-08-14T23:14:00.898Z,19.10
2022-08-14T23:16:31.276Z,19.10
2022-08-14T23:18:59.223Z,19.20
2022-08-14T23:21:28.834Z,19.10
2022-08-14T23:23:59.412Z,19.10
2022-08-14T23:26:48.124Z,18.90
2022-08-14T23:29:18.479Z,19.00
2022-08-14T23:31:46.441Z,19.10
2022-08-14T23:34:20.469Z,19.10
2022-08-14T23:36:54.459Z,19.00
2022-08-14T23:39:29.687Z,19.00
2022-08-14T23:42:02.448Z,19.00
2022-08-14T23:44:35.081Z,18.90
2022-08-14T23:47:10.732Z,18.80
2022-08-14T23:50:01.375Z,18.70
2022-08-14T23:52:56.063Z,18.60
2022-08-14T23:55:18.981Z,18.60
2022-08-14T23:57:58.134Z,18.70
